sensor_id;sensor_type;location;lat;lon;timestamp;P1;durP1;ratioP1;P2;durP2;ratioP2
4873;SDS011;2451;49.970;9.068;2023-11-21T00:00:37;3.45;;;1.50;;
4873;SDS011;2451;49.970;9.068;2023-11-21T00:03:02;4.97;;;1.70;;
4873;SDS011;2451;49.970;9.068;2023-11-21T00:05:29;3.50;;;1.60;;
4873;SDS011;2451;49.970;9.068;2023-11-21T00:07:54;2.22;;;1.42;;
4873;SDS011;2451;49.970;9.068;2023-11-21T00:10:20;6.15;;;1.73;;
4873;SDS011;2451;49.970;9.068;2023-11-21T00:12:46;4.88;;;1.80;;
4873;SDS011;2451;49.970;9.068;2023-11-21T00:15:13;5.55;;;2.00;;
4873;SDS011;2451;49.970;9.068;2023-11-21T00:17:38;4.47;;;1.70;;
4873;SDS011;2451;49.970;9.068;2023-11-21T00:20:05;3.85;;;2.00;;
4873;SDS011;2451;49.970;9.068;2023-11-21T00:22:35;4.00;;;1.75;;
4873;SDS011;2451;49.970;9.068;2023-11-21T00:25:01;5.10;;;1.75;;
4873;SDS011;2451;49.970;9.068;2023-11-21T00:27:28;3.70;;;1.75;;
4873;SDS011;2451;49.970;9.068;2023-11-21T00:29:54;7.00;;;1.90;;
4873;SDS011;2451;49.970;9.068;2023-11-21T00:32:20;3.75;;;1.73;;
4873;SDS011;2451;49.970;9.068;2023-11-21T00:34:45;3.83;;;1.80;;
4873;SDS011;2451;49.970;9.068;2023-11-21T00:37:11;4.07;;;1.85;;
4873;SDS011;2451;49.970;9.068;2023-11-21T00:39:36;5.47;;;2.08;;
4873;SDS011;2451;49.970;9.068;2023-11-21T00:42:02;4.25;;;2.00;;
4873;SDS011;2451;49.970;9.068;2023-11-21T00:44:29;5.18;;;2.17;;
4873;SDS011;2451;49.970;9.068;2023-11-21T00:46:55;5.88;;;2.22;;
4873;SDS011;2451;49.970;9.068;2023-11-21T00:49:21;4.78;;;1.90;;
4873;SDS011;2451;49.970;9.068;2023-11-21T00:51:46;7.15;;;2.35;;
4873;SDS011;2451;49.970;9.068;2023-11-21T00:54:12;4.57;;;1.80;;
4873;SDS011;2451;49.970;9.068;2023-11-21T00:56:37;5.28;;;2.00;;
4873;SDS011;2451;49.970;9.068;2023-11-21T00:59:05;4.45;;;2.03;;
4873;SDS011;2451;49.970;9.068;2023-11-21T01:01:30;3.47;;;1.77;;
4873;SDS011;2451;49.970;9.068;2023-11-21T01:03:56;4.40;;;2.25;;
4873;SDS011;2451;49.970;9.068;2023-11-21T01:06:21;3.78;;;2.20;;
4873;SDS011;2451;49.970;9.068;2023-11-21T01:08:47;3.08;;;1.73;;
4873;SDS011;2451;49.970;9.068;2023-11-21T01:11:12;3.35;;;1.75;;
4873;SDS011;2451;49.970;9.068;2023-11-21T01:13:38;4.57;;;1.77;;
4873;SDS011;2451;49.970;9.068;2023-11-21T01:16:05;3.17;;;1.60;;
4873;SDS011;2451;49.970;9.068;2023-11-21T01:18:34;5.15;;;1.83;;
4873;SDS011;2451;49.970;9.068;2023-11-21T01:21:00;5.85;;;1.90;;
4873;SDS011;2451;49.970;9.068;2023-11-21T01:23:26;5.25;;;1.77;;
4873;SDS011;2451;49.970;9.068;2023-11-21T01:25:52;3.38;;;1.75;;
4873;SDS011;2451;49.970;9.068;2023-11-21T01:28:18;6.32;;;1.60;;
4873;SDS011;2451;49.970;9.068;2023-11-21T01:30:44;2.58;;;1.67;;
4873;SDS011;2451;49.970;9.068;2023-11-21T01:33:10;2.90;;;1.50;;
4873;SDS011;2451;49.970;9.068;2023-11-21T01:35:36;3.90;;;1.70;;
4873;SDS011;2451;49.970;9.068;2023-11-21T01:38:02;3.03;;;1.90;;
4873;SDS011;2451;49.970;9.068;2023-11-21T01:40:28;4.70;;;1.80;;
4873;SDS011;2451;49.970;9.068;2023-11-21T01:42:55;3.95;;;1.83;;
4873;SDS011;2451;49.970;9.068;2023-11-21T01:45:21;3.63;;;1.75;;
4873;SDS011;2451;49.970;9.068;2023-11-21T01:47:46;3.97;;;1.50;;
4873;SDS011;2451;49.970;9.068;2023-11-21T01:50:13;5.35;;;1.75;;
4873;SDS011;2451;49.970;9.068;2023-11-21T01:52:46;2.72;;;1.60;;
4873;SDS011;2451;49.970;9.068;2023-11-21T01:55:12;4.05;;;1.60;;
4873;SDS011;2451;49.970;9.068;2023-11-21T01:57:47;4.57;;;1.33;;
4873;SDS011;2451;49.970;9.068;2023-11-21T02:00:13;4.57;;;1.60;;
4873;SDS011;2451;49.970;9.068;2023-11-21T02:02:44;2.63;;;1.40;;
4873;SDS011;2451;49.970;9.068;2023-11-21T02:05:11;4.50;;;1.60;;
4873;SDS011;2451;49.970;9.068;2023-11-21T02:07:41;5.18;;;1.60;;
4873;SDS011;2451;49.970;9.068;2023-11-21T02:12:33;2.03;;;1.42;;
4873;SDS011;2451;49.970;9.068;2023-11-21T02:15:04;2.97;;;1.88;;
4873;SDS011;2451;49.970;9.068;2023-11-21T02:17:34;3.60;;;1.60;;
4873;SDS011;2451;49.970;9.068;2023-11-21T02:20:00;2.95;;;1.48;;
4873;SDS011;2451;49.970;9.068;2023-11-21T02:22:26;3.17;;;1.40;;
4873;SDS011;2451;49.970;9.068;2023-11-21T02:27:22;3.00;;;1.70;;
4873;SDS011;2451;49.970;9.068;2023-11-21T02:29:49;2.88;;;1.70;;
4873;SDS011;2451;49.970;9.068;2023-11-21T02:32:14;3.33;;;1.40;;
4873;SDS011;2451;49.970;9.068;2023-11-21T02:34:42;3.85;;;1.50;;
4873;SDS011;2451;49.970;9.068;2023-11-21T02:37:08;3.33;;;1.52;;
4873;SDS011;2451;49.970;9.068;2023-11-21T02:39:34;3.80;;;1.80;;
4873;SDS011;2451;49.970;9.068;2023-11-21T02:41:59;2.50;;;1.40;;
4873;SDS011;2451;49.970;9.068;2023-11-21T02:44:25;1.75;;;1.40;;
4873;SDS011;2451;49.970;9.068;2023-11-21T02:46:51;4.32;;;1.58;;
4873;SDS011;2451;49.970;9.068;2023-11-21T02:49:16;4.25;;;1.95;;
4873;SDS011;2451;49.970;9.068;2023-11-21T02:51:42;2.40;;;1.30;;
4873;SDS011;2451;49.970;9.068;2023-11-21T02:54:08;4.15;;;1.67;;
4873;SDS011;2451;49.970;9.068;2023-11-21T02:56:34;4.70;;;1.65;;
4873;SDS011;2451;49.970;9.068;2023-11-21T02:59:00;4.40;;;1.52;;
4873;SDS011;2451;49.970;9.068;2023-11-21T03:01:26;3.15;;;1.60;;
4873;SDS011;2451;49.970;9.068;2023-11-21T03:03:52;5.68;;;2.13;;
4873;SDS011;2451;49.970;9.068;2023-11-21T03:06:20;2.85;;;1.77;;
4873;SDS011;2451;49.970;9.068;2023-11-21T03:08:46;5.35;;;1.80;;
4873;SDS011;2451;49.970;9.068;2023-11-21T03:11:12;4.60;;;1.80;;
4873;SDS011;2451;49.970;9.068;2023-11-21T03:13:39;3.20;;;1.70;;
4873;SDS011;2451;49.970;9.068;2023-11-21T03:16:06;3.33;;;1.65;;
4873;SDS011;2451;49.970;9.068;2023-11-21T03:18:33;3.08;;;1.52;;
4873;SDS011;2451;49.970;9.068;2023-11-21T03:20:59;2.50;;;1.50;;
4873;SDS011;2451;49.970;9.068;2023-11-21T03:23:24;3.70;;;1.55;;
4873;SDS011;2451;49.970;9.068;2023-11-21T03:25:52;3.80;;;1.83;;
4873;SDS011;2451;49.970;9.068;2023-11-21T03:28:17;2.95;;;1.80;;
4873;SDS011;2451;49.970;9.068;2023-11-21T03:30:43;4.47;;;1.58;;
4873;SDS011;2451;49.970;9.068;2023-11-21T03:33:08;4.18;;;1.90;;
4873;SDS011;2451;49.970;9.068;2023-11-21T03:35:34;4.35;;;1.65;;
4873;SDS011;2451;49.970;9.068;2023-11-21T03:38:00;3.47;;;1.60;;
4873;SDS011;2451;49.970;9.068;2023-11-21T03:40:25;3.22;;;1.83;;
4873;SDS011;2451;49.970;9.068;2023-11-21T03:42:51;5.18;;;2.00;;
4873;SDS011;2451;49.970;9.068;2023-11-21T03:45:16;2.92;;;1.52;;
4873;SDS011;2451;49.970;9.068;2023-11-21T03:47:42;3.30;;;1.77;;
4873;SDS011;2451;49.970;9.068;2023-11-21T03:50:08;3.47;;;1.60;;
4873;SDS011;2451;49.970;9.068;2023-11-21T03:52:34;1.88;;;1.40;;
4873;SDS011;2451;49.970;9.068;2023-11-21T03:55:00;4.28;;;1.70;;
4873;SDS011;2451;49.970;9.068;2023-11-21T03:57:26;2.70;;;1.50;;
4873;SDS011;2451;49.970;9.068;2023-11-21T03:59:52;4.15;;;1.70;;
4873;SDS011;2451;49.970;9.068;2023-11-21T04:02:18;2.90;;;1.88;;
4873;SDS011;2451;49.970;9.068;2023-11-21T04:04:44;4.53;;;1.60;;
4873;SDS011;2451;49.970;9.068;2023-11-21T04:07:10;6.30;;;1.70;;
4873;SDS011;2451;49.970;9.068;2023-11-21T04:09:36;5.32;;;1.77;;
4873;SDS011;2451;49.970;9.068;2023-11-21T04:12:01;3.13;;;1.40;;
4873;SDS011;2451;49.970;9.068;2023-11-21T04:14:27;4.13;;;1.55;;
4873;SDS011;2451;49.970;9.068;2023-11-21T04:16:53;3.05;;;1.70;;
4873;SDS011;2451;49.970;9.068;2023-11-21T04:19:18;2.83;;;1.42;;
4873;SDS011;2451;49.970;9.068;2023-11-21T04:21:44;5.00;;;2.67;;
4873;SDS011;2451;49.970;9.068;2023-11-21T04:24:11;3.85;;;2.20;;
4873;SDS011;2451;49.970;9.068;2023-11-21T04:26:36;4.38;;;1.98;;
4873;SDS011;2451;49.970;9.068;2023-11-21T04:29:02;4.63;;;1.85;;
4873;SDS011;2451;49.970;9.068;2023-11-21T04:31:28;2.25;;;1.50;;
4873;SDS011;2451;49.970;9.068;2023-11-21T04:33:53;2.85;;;1.80;;
4873;SDS011;2451;49.970;9.068;2023-11-21T04:36:19;2.55;;;1.88;;
4873;SDS011;2451;49.970;9.068;2023-11-21T04:38:45;3.30;;;1.80;;
4873;SDS011;2451;49.970;9.068;2023-11-21T04:41:10;5.15;;;1.63;;
4873;SDS011;2451;49.970;9.068;2023-11-21T04:43:36;3.58;;;1.63;;
4873;SDS011;2451;49.970;9.068;2023-11-21T04:46:02;3.40;;;1.85;;
4873;SDS011;2451;49.970;9.068;2023-11-21T04:48:28;2.90;;;1.83;;
4873;SDS011;2451;49.970;9.068;2023-11-21T04:50:53;3.50;;;1.90;;
4873;SDS011;2451;49.970;9.068;2023-11-21T04:53:19;3.17;;;1.98;;
4873;SDS011;2451;49.970;9.068;2023-11-21T04:55:44;3.63;;;2.10;;
4873;SDS011;2451;49.970;9.068;2023-11-21T04:58:11;6.03;;;2.47;;
4873;SDS011;2451;49.970;9.068;2023-11-21T05:00:37;5.13;;;2.20;;
4873;SDS011;2451;49.970;9.068;2023-11-21T05:03:03;4.68;;;2.58;;
4873;SDS011;2451;49.970;9.068;2023-11-21T05:05:30;4.38;;;2.30;;
4873;SDS011;2451;49.970;9.068;2023-11-21T05:07:55;4.32;;;2.17;;
4873;SDS011;2451;49.970;9.068;2023-11-21T05:10:21;2.22;;;1.52;;
4873;SDS011;2451;49.970;9.068;2023-11-21T05:12:47;2.90;;;1.70;;
4873;SDS011;2451;49.970;9.068;2023-11-21T05:15:15;4.22;;;1.70;;
4873;SDS011;2451;49.970;9.068;2023-11-21T05:17:45;3.17;;;1.80;;
4873;SDS011;2451;49.970;9.068;2023-11-21T05:20:20;2.40;;;1.65;;
4873;SDS011;2451;49.970;9.068;2023-11-21T05:22:46;4.28;;;1.95;;
4873;SDS011;2451;49.970;9.068;2023-11-21T05:25:15;2.92;;;1.60;;
4873;SDS011;2451;49.970;9.068;2023-11-21T05:27:47;5.07;;;2.13;;
4873;SDS011;2451;49.970;9.068;2023-11-21T05:30:13;4.90;;;2.17;;
4873;SDS011;2451;49.970;9.068;2023-11-21T05:32:39;4.57;;;2.40;;
4873;SDS011;2451;49.970;9.068;2023-11-21T05:35:07;4.50;;;2.78;;
4873;SDS011;2451;49.970;9.068;2023-11-21T05:37:36;6.10;;;2.42;;
4873;SDS011;2451;49.970;9.068;2023-11-21T05:40:03;5.68;;;2.75;;
4873;SDS011;2451;49.970;9.068;2023-11-21T05:42:31;7.78;;;3.58;;
4873;SDS011;2451;49.970;9.068;2023-11-21T05:44:57;8.27;;;3.55;;
4873;SDS011;2451;49.970;9.068;2023-11-21T05:47:24;6.55;;;3.50;;
4873;SDS011;2451;49.970;9.068;2023-11-21T05:49:51;6.20;;;3.17;;
4873;SDS011;2451;49.970;9.068;2023-11-21T05:52:17;7.00;;;3.70;;
4873;SDS011;2451;49.970;9.068;2023-11-21T05:54:43;7.53;;;4.45;;
4873;SDS011;2451;49.970;9.068;2023-11-21T05:57:08;6.90;;;2.90;;
4873;SDS011;2451;49.970;9.068;2023-11-21T05:59:34;6.25;;;3.85;;
4873;SDS011;2451;49.970;9.068;2023-11-21T06:01:59;7.45;;;3.20;;
4873;SDS011;2451;49.970;9.068;2023-11-21T06:04:25;6.05;;;3.67;;
4873;SDS011;2451;49.970;9.068;2023-11-21T06:06:51;6.97;;;3.60;;
4873;SDS011;2451;49.970;9.068;2023-11-21T06:09:17;5.35;;;3.00;;
4873;SDS011;2451;49.970;9.068;2023-11-21T06:11:44;4.40;;;2.55;;
4873;SDS011;2451;49.970;9.068;2023-11-21T06:14:09;7.10;;;4.43;;
4873;SDS011;2451;49.970;9.068;2023-11-21T06:16:35;23.90;;;8.70;;
4873;SDS011;2451;49.970;9.068;2023-11-21T06:19:01;29.45;;;11.45;;
4873;SDS011;2451;49.970;9.068;2023-11-21T06:21:27;25.05;;;10.98;;
4873;SDS011;2451;49.970;9.068;2023-11-21T06:23:52;18.50;;;8.35;;
4873;SDS011;2451;49.970;9.068;2023-11-21T06:26:18;9.52;;;4.90;;
4873;SDS011;2451;49.970;9.068;2023-11-21T06:28:43;10.30;;;5.07;;
4873;SDS011;2451;49.970;9.068;2023-11-21T06:31:09;10.20;;;4.38;;
4873;SDS011;2451;49.970;9.068;2023-11-21T06:33:35;8.80;;;4.63;;
4873;SDS011;2451;49.970;9.068;2023-11-21T06:36:01;9.50;;;4.53;;
4873;SDS011;2451;49.970;9.068;2023-11-21T06:38:31;9.98;;;5.10;;
4873;SDS011;2451;49.970;9.068;2023-11-21T06:40:57;9.55;;;5.30;;
4873;SDS011;2451;49.970;9.068;2023-11-21T06:43:23;9.98;;;5.78;;
4873;SDS011;2451;49.970;9.068;2023-11-21T06:45:48;10.23;;;4.85;;
4873;SDS011;2451;49.970;9.068;2023-11-21T06:48:14;13.35;;;5.75;;
4873;SDS011;2451;49.970;9.068;2023-11-21T06:50:40;12.15;;;5.68;;
4873;SDS011;2451;49.970;9.068;2023-11-21T06:53:06;10.75;;;5.40;;
4873;SDS011;2451;49.970;9.068;2023-11-21T06:55:33;10.30;;;5.25;;
4873;SDS011;2451;49.970;9.068;2023-11-21T06:57:58;12.32;;;5.55;;
4873;SDS011;2451;49.970;9.068;2023-11-21T07:00:25;14.20;;;5.70;;
4873;SDS011;2451;49.970;9.068;2023-11-21T07:02:52;11.57;;;5.63;;
4873;SDS011;2451;49.970;9.068;2023-11-21T07:05:18;11.05;;;5.80;;
4873;SDS011;2451;49.970;9.068;2023-11-21T07:07:46;10.75;;;5.72;;
4873;SDS011;2451;49.970;9.068;2023-11-21T07:10:12;11.30;;;5.53;;
4873;SDS011;2451;49.970;9.068;2023-11-21T07:12:38;11.63;;;5.70;;
4873;SDS011;2451;49.970;9.068;2023-11-21T07:15:03;11.45;;;5.80;;
4873;SDS011;2451;49.970;9.068;2023-11-21T07:17:32;10.43;;;5.63;;
4873;SDS011;2451;49.970;9.068;2023-11-21T07:19:57;11.73;;;6.13;;
4873;SDS011;2451;49.970;9.068;2023-11-21T07:22:23;11.05;;;5.90;;
4873;SDS011;2451;49.970;9.068;2023-11-21T07:24:49;9.70;;;5.38;;
4873;SDS011;2451;49.970;9.068;2023-11-21T07:27:15;9.48;;;5.20;;
4873;SDS011;2451;49.970;9.068;2023-11-21T07:29:41;9.57;;;5.13;;
4873;SDS011;2451;49.970;9.068;2023-11-21T07:32:07;12.93;;;5.68;;
4873;SDS011;2451;49.970;9.068;2023-11-21T07:34:34;14.25;;;6.50;;
4873;SDS011;2451;49.970;9.068;2023-11-21T07:37:00;11.85;;;7.00;;
4873;SDS011;2451;49.970;9.068;2023-11-21T07:39:26;13.10;;;6.65;;
4873;SDS011;2451;49.970;9.068;2023-11-21T07:41:52;11.77;;;6.13;;
4873;SDS011;2451;49.970;9.068;2023-11-21T07:44:17;12.13;;;6.43;;
4873;SDS011;2451;49.970;9.068;2023-11-21T07:46:44;11.95;;;6.03;;
4873;SDS011;2451;49.970;9.068;2023-11-21T07:49:10;12.27;;;5.65;;
4873;SDS011;2451;49.970;9.068;2023-11-21T07:51:37;9.90;;;5.28;;
4873;SDS011;2451;49.970;9.068;2023-11-21T07:54:02;9.65;;;5.30;;
4873;SDS011;2451;49.970;9.068;2023-11-21T07:56:28;10.85;;;5.18;;
4873;SDS011;2451;49.970;9.068;2023-11-21T07:58:53;12.10;;;5.72;;
4873;SDS011;2451;49.970;9.068;2023-11-21T08:01:19;11.40;;;6.00;;
4873;SDS011;2451;49.970;9.068;2023-11-21T08:03:44;11.57;;;5.90;;
4873;SDS011;2451;49.970;9.068;2023-11-21T08:06:10;8.60;;;4.82;;
4873;SDS011;2451;49.970;9.068;2023-11-21T08:08:35;11.20;;;6.68;;
4873;SDS011;2451;49.970;9.068;2023-11-21T08:11:01;10.75;;;6.15;;
4873;SDS011;2451;49.970;9.068;2023-11-21T08:13:29;11.40;;;5.57;;
4873;SDS011;2451;49.970;9.068;2023-11-21T08:15:57;12.30;;;6.10;;
4873;SDS011;2451;49.970;9.068;2023-11-21T08:18:27;9.90;;;5.72;;
4873;SDS011;2451;49.970;9.068;2023-11-21T08:20:54;10.25;;;5.68;;
4873;SDS011;2451;49.970;9.068;2023-11-21T08:23:20;9.18;;;5.20;;
4873;SDS011;2451;49.970;9.068;2023-11-21T08:25:50;10.05;;;5.50;;
4873;SDS011;2451;49.970;9.068;2023-11-21T08:28:16;10.52;;;5.55;;
4873;SDS011;2451;49.970;9.068;2023-11-21T08:30:42;11.27;;;5.78;;
4873;SDS011;2451;49.970;9.068;2023-11-21T08:33:08;10.02;;;5.45;;
4873;SDS011;2451;49.970;9.068;2023-11-21T08:35:33;10.77;;;5.43;;
4873;SDS011;2451;49.970;9.068;2023-11-21T08:38:00;10.55;;;6.07;;
4873;SDS011;2451;49.970;9.068;2023-11-21T08:40:26;9.73;;;5.20;;
4873;SDS011;2451;49.970;9.068;2023-11-21T08:42:51;10.05;;;5.95;;
4873;SDS011;2451;49.970;9.068;2023-11-21T08:45:17;13.10;;;6.40;;
4873;SDS011;2451;49.970;9.068;2023-11-21T08:47:43;9.98;;;6.20;;
4873;SDS011;2451;49.970;9.068;2023-11-21T08:50:09;9.40;;;5.85;;
4873;SDS011;2451;49.970;9.068;2023-11-21T08:52:37;9.38;;;5.53;;
4873;SDS011;2451;49.970;9.068;2023-11-21T08:55:03;11.45;;;6.50;;
4873;SDS011;2451;49.970;9.068;2023-11-21T08:57:33;10.20;;;4.97;;
4873;SDS011;2451;49.970;9.068;2023-11-21T09:00:00;8.63;;;4.65;;
4873;SDS011;2451;49.970;9.068;2023-11-21T09:02:26;7.82;;;3.85;;
4873;SDS011;2451;49.970;9.068;2023-11-21T09:04:51;11.40;;;4.55;;
4873;SDS011;2451;49.970;9.068;2023-11-21T09:07:18;10.43;;;5.18;;
4873;SDS011;2451;49.970;9.068;2023-11-21T09:09:45;10.32;;;5.28;;
4873;SDS011;2451;49.970;9.068;2023-11-21T09:12:14;9.75;;;5.30;;
4873;SDS011;2451;49.970;9.068;2023-11-21T09:14:40;10.30;;;5.15;;
4873;SDS011;2451;49.970;9.068;2023-11-21T09:17:07;9.88;;;5.32;;
4873;SDS011;2451;49.970;9.068;2023-11-21T09:19:36;9.20;;;5.25;;
4873;SDS011;2451;49.970;9.068;2023-11-21T09:22:05;10.60;;;5.00;;
4873;SDS011;2451;49.970;9.068;2023-11-21T09:24:31;8.88;;;4.70;;
4873;SDS011;2451;49.970;9.068;2023-11-21T09:26:58;7.50;;;3.90;;
4873;SDS011;2451;49.970;9.068;2023-11-21T09:29:26;6.25;;;3.47;;
4873;SDS011;2451;49.970;9.068;2023-11-21T09:31:52;8.45;;;3.92;;
4873;SDS011;2451;49.970;9.068;2023-11-21T09:34:18;6.80;;;3.55;;
4873;SDS011;2451;49.970;9.068;2023-11-21T09:36:45;9.18;;;4.90;;
4873;SDS011;2451;49.970;9.068;2023-11-21T09:39:11;7.72;;;4.25;;
4873;SDS011;2451;49.970;9.068;2023-11-21T09:41:43;7.57;;;3.97;;
4873;SDS011;2451;49.970;9.068;2023-11-21T09:44:13;8.30;;;4.07;;
4873;SDS011;2451;49.970;9.068;2023-11-21T09:46:42;8.27;;;4.90;;
4873;SDS011;2451;49.970;9.068;2023-11-21T09:49:10;6.68;;;3.60;;
4873;SDS011;2451;49.970;9.068;2023-11-21T09:51:42;6.18;;;3.40;;
4873;SDS011;2451;49.970;9.068;2023-11-21T09:54:11;8.38;;;3.97;;
4873;SDS011;2451;49.970;9.068;2023-11-21T09:56:40;7.95;;;3.30;;
4873;SDS011;2451;49.970;9.068;2023-11-21T09:59:07;6.90;;;3.40;;
4873;SDS011;2451;49.970;9.068;2023-11-21T10:01:37;5.75;;;2.60;;
4873;SDS011;2451;49.970;9.068;2023-11-21T10:04:05;5.53;;;2.70;;
4873;SDS011;2451;49.970;9.068;2023-11-21T10:06:36;4.13;;;2.28;;
4873;SDS011;2451;49.970;9.068;2023-11-21T10:09:10;4.20;;;2.30;;
4873;SDS011;2451;49.970;9.068;2023-11-21T10:11:39;4.72;;;2.78;;
4873;SDS011;2451;49.970;9.068;2023-11-21T10:14:11;5.97;;;2.40;;
4873;SDS011;2451;49.970;9.068;2023-11-21T10:16:39;5.40;;;2.75;;
4873;SDS011;2451;49.970;9.068;2023-11-21T10:19:07;6.13;;;2.42;;
4873;SDS011;2451;49.970;9.068;2023-11-21T10:21:35;4.57;;;2.40;;
4873;SDS011;2451;49.970;9.068;2023-11-21T10:24:03;5.50;;;2.78;;
4873;SDS011;2451;49.970;9.068;2023-11-21T10:26:29;5.05;;;1.95;;
4873;SDS011;2451;49.970;9.068;2023-11-21T10:29:00;5.28;;;2.50;;
4873;SDS011;2451;49.970;9.068;2023-11-21T10:31:30;4.72;;;2.35;;
4873;SDS011;2451;49.970;9.068;2023-11-21T10:34:15;6.07;;;2.63;;
4873;SDS011;2451;49.970;9.068;2023-11-21T10:36:42;6.57;;;2.35;;
4873;SDS011;2451;49.970;9.068;2023-11-21T10:39:07;5.28;;;2.50;;
4873;SDS011;2451;49.970;9.068;2023-11-21T10:41:34;5.55;;;2.63;;
4873;SDS011;2451;49.970;9.068;2023-11-21T10:44:00;4.88;;;2.70;;
4873;SDS011;2451;49.970;9.068;2023-11-21T10:46:31;8.02;;;3.20;;
4873;SDS011;2451;49.970;9.068;2023-11-21T10:48:57;10.98;;;3.10;;
4873;SDS011;2451;49.970;9.068;2023-11-21T10:51:22;4.88;;;2.60;;
4873;SDS011;2451;49.970;9.068;2023-11-21T10:53:54;8.23;;;2.83;;
4873;SDS011;2451;49.970;9.068;2023-11-21T10:56:19;5.43;;;3.25;;
4873;SDS011;2451;49.970;9.068;2023-11-21T10:58:48;5.95;;;2.80;;
4873;SDS011;2451;49.970;9.068;2023-11-21T11:01:18;5.75;;;3.00;;
4873;SDS011;2451;49.970;9.068;2023-11-21T11:03:46;4.73;;;2.67;;
4873;SDS011;2451;49.970;9.068;2023-11-21T11:06:12;6.80;;;3.45;;
4873;SDS011;2451;49.970;9.068;2023-11-21T11:08:39;6.90;;;3.58;;
4873;SDS011;2451;49.970;9.068;2023-11-21T11:11:05;4.95;;;2.83;;
4873;SDS011;2451;49.970;9.068;2023-11-21T11:13:32;5.00;;;2.95;;
4873;SDS011;2451;49.970;9.068;2023-11-21T11:15:59;7.00;;;4.00;;
4873;SDS011;2451;49.970;9.068;2023-11-21T11:18:26;4.43;;;2.65;;
4873;SDS011;2451;49.970;9.068;2023-11-21T11:20:56;6.30;;;3.03;;
4873;SDS011;2451;49.970;9.068;2023-11-21T11:26:21;5.65;;;2.40;;
4873;SDS011;2451;49.970;9.068;2023-11-21T11:29:01;4.97;;;2.50;;
4873;SDS011;2451;49.970;9.068;2023-11-21T11:34:17;4.00;;;2.20;;
4873;SDS011;2451;49.970;9.068;2023-11-21T11:37:00;2.80;;;1.80;;
4873;SDS011;2451;49.970;9.068;2023-11-21T11:39:31;3.85;;;2.03;;
4873;SDS011;2451;49.970;9.068;2023-11-21T11:42:06;5.28;;;1.98;;
4873;SDS011;2451;49.970;9.068;2023-11-21T11:50:10;2.80;;;1.88;;
4873;SDS011;2451;49.970;9.068;2023-11-21T11:52:48;3.53;;;2.03;;
4873;SDS011;2451;49.970;9.068;2023-11-21T11:55:17;4.38;;;2.42;;
4873;SDS011;2451;49.970;9.068;2023-11-21T11:57:44;3.63;;;1.90;;
4873;SDS011;2451;49.970;9.068;2023-11-21T12:00:20;4.88;;;2.00;;
4873;SDS011;2451;49.970;9.068;2023-11-21T12:02:52;3.15;;;1.73;;
4873;SDS011;2451;49.970;9.068;2023-11-21T12:05:20;4.43;;;2.00;;
4873;SDS011;2451;49.970;9.068;2023-11-21T12:07:47;3.28;;;1.60;;
4873;SDS011;2451;49.970;9.068;2023-11-21T12:10:15;2.95;;;1.80;;
4873;SDS011;2451;49.970;9.068;2023-11-21T12:12:49;5.05;;;1.80;;
4873;SDS011;2451;49.970;9.068;2023-11-21T12:15:17;4.53;;;2.10;;
4873;SDS011;2451;49.970;9.068;2023-11-21T12:17:43;5.82;;;1.80;;
4873;SDS011;2451;49.970;9.068;2023-11-21T12:20:10;4.00;;;1.95;;
4873;SDS011;2451;49.970;9.068;2023-11-21T12:25:19;3.53;;;1.83;;
4873;SDS011;2451;49.970;9.068;2023-11-21T12:27:56;4.70;;;1.70;;
4873;SDS011;2451;49.970;9.068;2023-11-21T12:30:26;4.53;;;2.17;;
4873;SDS011;2451;49.970;9.068;2023-11-21T12:32:55;5.10;;;2.13;;
4873;SDS011;2451;49.970;9.068;2023-11-21T12:35:23;4.38;;;2.03;;
4873;SDS011;2451;49.970;9.068;2023-11-21T12:37:50;6.13;;;1.92;;
4873;SDS011;2451;49.970;9.068;2023-11-21T12:40:17;4.47;;;2.50;;
4873;SDS011;2451;49.970;9.068;2023-11-21T12:42:44;3.60;;;2.00;;
4873;SDS011;2451;49.970;9.068;2023-11-21T12:47:48;5.63;;;3.33;;
4873;SDS011;2451;49.970;9.068;2023-11-21T12:50:24;5.03;;;2.75;;
4873;SDS011;2451;49.970;9.068;2023-11-21T12:52:58;7.40;;;2.53;;
4873;SDS011;2451;49.970;9.068;2023-11-21T12:55:32;8.95;;;3.10;;
4873;SDS011;2451;49.970;9.068;2023-11-21T12:58:00;3.95;;;2.25;;
4873;SDS011;2451;49.970;9.068;2023-11-21T13:00:34;5.03;;;2.42;;
4873;SDS011;2451;49.970;9.068;2023-11-21T13:03:09;5.47;;;2.50;;
4873;SDS011;2451;49.970;9.068;2023-11-21T13:05:37;6.93;;;2.80;;
4873;SDS011;2451;49.970;9.068;2023-11-21T13:08:05;10.25;;;4.13;;
4873;SDS011;2451;49.970;9.068;2023-11-21T13:10:35;5.28;;;3.28;;
4873;SDS011;2451;49.970;9.068;2023-11-21T13:13:05;6.03;;;3.42;;
4873;SDS011;2451;49.970;9.068;2023-11-21T13:15:33;9.07;;;3.67;;
4873;SDS011;2451;49.970;9.068;2023-11-21T13:18:03;6.13;;;3.25;;
4873;SDS011;2451;49.970;9.068;2023-11-21T13:20:29;7.03;;;3.00;;
4873;SDS011;2451;49.970;9.068;2023-11-21T13:22:58;7.00;;;2.90;;
4873;SDS011;2451;49.970;9.068;2023-11-21T13:25:27;8.40;;;3.35;;
4873;SDS011;2451;49.970;9.068;2023-11-21T13:27:59;5.93;;;2.72;;
4873;SDS011;2451;49.970;9.068;2023-11-21T13:30:28;10.20;;;3.40;;
4873;SDS011;2451;49.970;9.068;2023-11-21T13:32:59;10.13;;;3.47;;
4873;SDS011;2451;49.970;9.068;2023-11-21T13:35:27;8.80;;;3.35;;
4873;SDS011;2451;49.970;9.068;2023-11-21T13:38:05;6.70;;;2.70;;
4873;SDS011;2451;49.970;9.068;2023-11-21T13:40:38;10.83;;;3.17;;
4873;SDS011;2451;49.970;9.068;2023-11-21T13:43:11;6.50;;;2.97;;
4873;SDS011;2451;49.970;9.068;2023-11-21T13:45:41;8.15;;;3.67;;
4873;SDS011;2451;49.970;9.068;2023-11-21T13:48:08;11.32;;;3.78;;
4873;SDS011;2451;49.970;9.068;2023-11-21T13:50:39;9.23;;;3.20;;
4873;SDS011;2451;49.970;9.068;2023-11-21T13:53:13;7.68;;;3.90;;
4873;SDS011;2451;49.970;9.068;2023-11-21T13:55:56;9.77;;;3.97;;
4873;SDS011;2451;49.970;9.068;2023-11-21T13:58:24;9.70;;;4.60;;
4873;SDS011;2451;49.970;9.068;2023-11-21T14:01:23;11.40;;;3.75;;
4873;SDS011;2451;49.970;9.068;2023-11-21T14:03:55;11.75;;;4.55;;
4873;SDS011;2451;49.970;9.068;2023-11-21T14:06:46;10.63;;;4.72;;
4873;SDS011;2451;49.970;9.068;2023-11-21T14:09:16;7.75;;;3.75;;
4873;SDS011;2451;49.970;9.068;2023-11-21T14:11:53;10.88;;;4.32;;
4873;SDS011;2451;49.970;9.068;2023-11-21T14:14:22;10.00;;;3.60;;
4873;SDS011;2451;49.970;9.068;2023-11-21T14:16:52;12.60;;;4.60;;
4873;SDS011;2451;49.970;9.068;2023-11-21T14:19:19;8.43;;;3.50;;
4873;SDS011;2451;49.970;9.068;2023-11-21T14:21:46;8.48;;;3.80;;
4873;SDS011;2451;49.970;9.068;2023-11-21T14:24:13;9.15;;;4.13;;
4873;SDS011;2451;49.970;9.068;2023-11-21T14:26:43;7.03;;;3.33;;
4873;SDS011;2451;49.970;9.068;2023-11-21T14:29:12;8.23;;;3.38;;
4873;SDS011;2451;49.970;9.068;2023-11-21T14:31:41;12.00;;;3.97;;
4873;SDS011;2451;49.970;9.068;2023-11-21T14:34:07;7.88;;;3.78;;
4873;SDS011;2451;49.970;9.068;2023-11-21T14:36:33;11.75;;;4.00;;
4873;SDS011;2451;49.970;9.068;2023-11-21T14:38:59;8.93;;;5.32;;
4873;SDS011;2451;49.970;9.068;2023-11-21T14:41:25;6.75;;;4.38;;
4873;SDS011;2451;49.970;9.068;2023-11-21T14:43:52;13.45;;;4.22;;
4873;SDS011;2451;49.970;9.068;2023-11-21T14:46:19;7.53;;;3.70;;
4873;SDS011;2451;49.970;9.068;2023-11-21T14:48:44;8.43;;;3.83;;
4873;SDS011;2451;49.970;9.068;2023-11-21T14:51:23;10.90;;;3.90;;
4873;SDS011;2451;49.970;9.068;2023-11-21T14:53:55;15.55;;;6.30;;
4873;SDS011;2451;49.970;9.068;2023-11-21T14:56:25;11.35;;;5.88;;
4873;SDS011;2451;49.970;9.068;2023-11-21T14:58:56;12.02;;;5.25;;
4873;SDS011;2451;49.970;9.068;2023-11-21T15:01:23;9.77;;;5.18;;
4873;SDS011;2451;49.970;9.068;2023-11-21T15:04:01;12.70;;;6.57;;
4873;SDS011;2451;49.970;9.068;2023-11-21T15:06:28;14.13;;;6.72;;
4873;SDS011;2451;49.970;9.068;2023-11-21T15:08:56;16.35;;;8.85;;
4873;SDS011;2451;49.970;9.068;2023-11-21T15:11:42;11.32;;;5.82;;
4873;SDS011;2451;49.970;9.068;2023-11-21T15:14:08;9.23;;;4.68;;
4873;SDS011;2451;49.970;9.068;2023-11-21T15:16:35;7.75;;;3.53;;
4873;SDS011;2451;49.970;9.068;2023-11-21T15:19:15;9.55;;;4.20;;
4873;SDS011;2451;49.970;9.068;2023-11-21T15:21:43;8.93;;;3.92;;
4873;SDS011;2451;49.970;9.068;2023-11-21T15:24:10;14.32;;;8.07;;
4873;SDS011;2451;49.970;9.068;2023-11-21T15:26:36;15.68;;;9.27;;
4873;SDS011;2451;49.970;9.068;2023-11-21T15:29:02;9.52;;;5.18;;
4873;SDS011;2451;49.970;9.068;2023-11-21T15:31:27;11.60;;;4.97;;
4873;SDS011;2451;49.970;9.068;2023-11-21T15:33:53;13.23;;;6.07;;
4873;SDS011;2451;49.970;9.068;2023-11-21T15:36:24;21.23;;;11.23;;